sensor_id;sensor_type;location;lat;lon;timestamp;pressure;altitude;pressure_sealevel;temperature;humidity
30598;BME280;17365;48.878;8.334;2023-07-16T00:00:41;99933.44;;;21.66;97.26
30598;BME280;17365;48.878;8.334;2023-07-16T00:03:06;99932.53;;;22.03;95.21
30598;BME280;17365;48.878;8.334;2023-07-16T00:05:32;99940.47;;;21.47;96.78
30598;BME280;17365;48.878;8.334;2023-07-16T00:07:57;99930.88;;;21.65;96.79
30598;BME280;17365;48.878;8.334;2023-07-16T00:10:22;99920.94;;;21.70;95.86
30598;BME280;17365;48.878;8.334;2023-07-16T00:12:47;99902.25;;;21.56;96.53
30598;BME280;17365;48.878;8.334;2023-07-16T00:15:12;99884.75;;;21.72;96.64
30598;BME280;17365;48.878;8.334;2023-07-16T00:17:38;99895.09;;;21.58;95.40
30598;BME280;17365;48.878;8.334;2023-07-16T00:20:03;99861.91;;;21.71;94.93
30598;BME280;17365;48.878;8.334;2023-07-16T00:22:29;99860.22;;;22.06;91.20
30598;BME280;17365;48.878;8.334;2023-07-16T00:24:54;99866.38;;;22.41;89.71
30598;BME280;17365;48.878;8.334;2023-07-16T00:27:20;99896.88;;;22.48;88.82
30598;BME280;17365;48.878;8.334;2023-07-16T00:29:45;99876.50;;;22.33;90.34
30598;BME280;17365;48.878;8.334;2023-07-16T00:32:11;99888.41;;;22.59;88.86
30598;BME280;17365;48.878;8.334;2023-07-16T00:34:36;99894.47;;;22.61;88.79
30598;BME280;17365;48.878;8.334;2023-07-16T00:37:01;99897.94;;;22.27;90.07
30598;BME280;17365;48.878;8.334;2023-07-16T00:39:28;99908.25;;;21.95;91.52
30598;BME280;17365;48.878;8.334;2023-07-16T00:41:53;99939.63;;;21.84;94.60
30598;BME280;17365;48.878;8.334;2023-07-16T00:44:19;99950.97;;;21.48;94.86
30598;BME280;17365;48.878;8.334;2023-07-16T00:46:44;99950.63;;;21.75;92.89
30598;BME280;17365;48.878;8.334;2023-07-16T00:49:09;99949.97;;;21.70;92.14
30598;BME280;17365;48.878;8.334;2023-07-16T00:51:34;99938.53;;;21.50;92.69
30598;BME280;17365;48.878;8.334;2023-07-16T00:53:59;99954.53;;;21.47;93.24
30598;BME280;17365;48.878;8.334;2023-07-16T00:56:26;99954.97;;;21.57;91.76
30598;BME280;17365;48.878;8.334;2023-07-16T00:58:51;99949.19;;;21.68;90.55
30598;BME280;17365;48.878;8.334;2023-07-16T01:01:16;99954.81;;;21.41;90.92
30598;BME280;17365;48.878;8.334;2023-07-16T01:03:41;99969.38;;;21.50;90.73
30598;BME280;17365;48.878;8.334;2023-07-16T01:08:44;99977.78;;;20.78;91.72
30598;BME280;17365;48.878;8.334;2023-07-16T01:11:10;99960.28;;;21.16;90.92
30598;BME280;17365;48.878;8.334;2023-07-16T01:13:36;99922.78;;;21.30;89.87
30598;BME280;17365;48.878;8.334;2023-07-16T01:16:02;99920.56;;;21.59;89.34
30598;BME280;17365;48.878;8.334;2023-07-16T01:18:27;99944.81;;;21.48;89.88
30598;BME280;17365;48.878;8.334;2023-07-16T01:20:52;99933.34;;;21.49;90.33
30598;BME280;17365;48.878;8.334;2023-07-16T01:28:38;99925.34;;;22.07;85.51
30598;BME280;17365;48.878;8.334;2023-07-16T01:31:08;99938.63;;;20.89;89.29
30598;BME280;17365;48.878;8.334;2023-07-16T01:33:35;99925.97;;;21.37;88.37
30598;BME280;17365;48.878;8.334;2023-07-16T01:36:01;99930.84;;;20.86;89.92
30598;BME280;17365;48.878;8.334;2023-07-16T01:38:27;99950.13;;;21.28;89.32
30598;BME280;17365;48.878;8.334;2023-07-16T01:40:53;99955.88;;;21.17;89.77
30598;BME280;17365;48.878;8.334;2023-07-16T01:43:18;99953.03;;;21.42;88.22
30598;BME280;17365;48.878;8.334;2023-07-16T01:45:43;99962.09;;;20.75;89.31
30598;BME280;17365;48.878;8.334;2023-07-16T01:50:52;99971.09;;;20.70;91.30
30598;BME280;17365;48.878;8.334;2023-07-16T01:53:17;99979.56;;;20.78;88.74
30598;BME280;17365;48.878;8.334;2023-07-16T01:55:43;99990.97;;;20.34;88.11
30598;BME280;17365;48.878;8.334;2023-07-16T01:58:08;99994.53;;;20.55;89.30
30598;BME280;17365;48.878;8.334;2023-07-16T02:00:34;99989.56;;;20.70;88.26
30598;BME280;17365;48.878;8.334;2023-07-16T02:03:00;99985.97;;;20.50;90.39
30598;BME280;17365;48.878;8.334;2023-07-16T02:05:25;99984.84;;;20.98;87.66
30598;BME280;17365;48.878;8.334;2023-07-16T02:07:50;99992.59;;;20.39;88.98
30598;BME280;17365;48.878;8.334;2023-07-16T02:10:15;100003.50;;;20.51;88.76
30598;BME280;17365;48.878;8.334;2023-07-16T02:12:41;100000.88;;;20.72;89.03
30598;BME280;17365;48.878;8.334;2023-07-16T02:15:06;99996.88;;;20.41;86.31
30598;BME280;17365;48.878;8.334;2023-07-16T02:17:31;100006.50;;;20.42;87.31
30598;BME280;17365;48.878;8.334;2023-07-16T02:19:56;100008.56;;;20.78;87.04
30598;BME280;17365;48.878;8.334;2023-07-16T02:22:22;100015.28;;;20.43;88.71
30598;BME280;17365;48.878;8.334;2023-07-16T02:24:47;100021.00;;;19.85;88.90
30598;BME280;17365;48.878;8.334;2023-07-16T02:27:12;100014.34;;;19.98;88.71
30598;BME280;17365;48.878;8.334;2023-07-16T02:29:37;100016.78;;;20.03;87.83
30598;BME280;17365;48.878;8.334;2023-07-16T02:32:02;100023.38;;;19.91;88.27
30598;BME280;17365;48.878;8.334;2023-07-16T02:34:28;100037.53;;;19.89;89.00
30598;BME280;17365;48.878;8.334;2023-07-16T02:36:53;100039.34;;;20.10;88.29
30598;BME280;17365;48.878;8.334;2023-07-16T02:39:18;100037.22;;;20.43;86.60
30598;BME280;17365;48.878;8.334;2023-07-16T02:41:43;100027.28;;;20.26;86.11
30598;BME280;17365;48.878;8.334;2023-07-16T02:44:08;100027.63;;;20.19;87.27
30598;BME280;17365;48.878;8.334;2023-07-16T02:46:33;100034.59;;;20.42;85.48
30598;BME280;17365;48.878;8.334;2023-07-16T02:48:59;100030.31;;;20.17;85.38
30598;BME280;17365;48.878;8.334;2023-07-16T02:51:24;100041.16;;;20.31;86.63
30598;BME280;17365;48.878;8.334;2023-07-16T02:53:49;100040.75;;;19.97;87.69
30598;BME280;17365;48.878;8.334;2023-07-16T02:56:15;100026.97;;;20.12;87.56
30598;BME280;17365;48.878;8.334;2023-07-16T02:58:41;100025.75;;;20.44;85.62
30598;BME280;17365;48.878;8.334;2023-07-16T03:01:06;100041.06;;;20.56;85.31
30598;BME280;17365;48.878;8.334;2023-07-16T03:03:32;100040.22;;;20.32;86.56
30598;BME280;17365;48.878;8.334;2023-07-16T03:05:57;100039.50;;;21.15;82.71
30598;BME280;17365;48.878;8.334;2023-07-16T03:08:22;100036.66;;;20.99;82.82
30598;BME280;17365;48.878;8.334;2023-07-16T03:10:51;100032.31;;;20.98;82.34
30598;BME280;17365;48.878;8.334;2023-07-16T03:13:16;100039.56;;;21.13;81.04
30598;BME280;17365;48.878;8.334;2023-07-16T03:15:41;100040.56;;;21.51;80.00
30598;BME280;17365;48.878;8.334;2023-07-16T03:18:06;100030.81;;;21.33;80.62
30598;BME280;17365;48.878;8.334;2023-07-16T03:20:32;100035.50;;;20.64;84.06
30598;BME280;17365;48.878;8.334;2023-07-16T03:22:57;100041.16;;;19.86;87.40
30598;BME280;17365;48.878;8.334;2023-07-16T03:25:22;100036.50;;;20.16;87.45
30598;BME280;17365;48.878;8.334;2023-07-16T03:27:47;100034.34;;;20.26;87.36
30598;BME280;17365;48.878;8.334;2023-07-16T03:30:13;100043.84;;;20.30;86.69
30598;BME280;17365;48.878;8.334;2023-07-16T03:32:38;100065.56;;;19.66;88.19
30598;BME280;17365;48.878;8.334;2023-07-16T03:35:03;100064.22;;;19.30;91.20
30598;BME280;17365;48.878;8.334;2023-07-16T03:37:29;100069.22;;;19.62;89.35
30598;BME280;17365;48.878;8.334;2023-07-16T03:39:54;100072.59;;;19.41;89.98
30598;BME280;17365;48.878;8.334;2023-07-16T03:42:19;100079.19;;;20.01;87.07
30598;BME280;17365;48.878;8.334;2023-07-16T03:44:44;100072.75;;;19.86;87.52
30598;BME280;17365;48.878;8.334;2023-07-16T03:47:09;100082.94;;;19.70;89.70
30598;BME280;17365;48.878;8.334;2023-07-16T03:49:34;100091.88;;;19.66;89.76
30598;BME280;17365;48.878;8.334;2023-07-16T03:52:00;100093.69;;;19.89;86.75
30598;BME280;17365;48.878;8.334;2023-07-16T03:54:25;100087.88;;;19.80;87.01
30598;BME280;17365;48.878;8.334;2023-07-16T03:56:50;100089.63;;;20.27;85.71
30598;BME280;17365;48.878;8.334;2023-07-16T03:59:15;100086.94;;;20.29;85.83
30598;BME280;17365;48.878;8.334;2023-07-16T04:01:40;100088.06;;;19.75;86.31
30598;BME280;17365;48.878;8.334;2023-07-16T04:04:05;100090.97;;;19.91;85.89
30598;BME280;17365;48.878;8.334;2023-07-16T04:06:31;100103.88;;;19.98;85.60
30598;BME280;17365;48.878;8.334;2023-07-16T04:08:56;100098.38;;;20.04;85.60
30598;BME280;17365;48.878;8.334;2023-07-16T04:11:21;100101.97;;;19.78;85.12
30598;BME280;17365;48.878;8.334;2023-07-16T04:13:46;100108.81;;;20.08;85.51
30598;BME280;17365;48.878;8.334;2023-07-16T04:16:11;100102.03;;;20.24;84.10
30598;BME280;17365;48.878;8.334;2023-07-16T04:18:37;100118.75;;;19.76;86.64
30598;BME280;17365;48.878;8.334;2023-07-16T04:21:02;100113.75;;;19.42;87.77
30598;BME280;17365;48.878;8.334;2023-07-16T04:23:27;100117.31;;;19.41;87.55
30598;BME280;17365;48.878;8.334;2023-07-16T04:25:53;100119.31;;;19.84;84.99
30598;BME280;17365;48.878;8.334;2023-07-16T04:28:19;100125.28;;;19.64;86.10
30598;BME280;17365;48.878;8.334;2023-07-16T04:30:44;100132.84;;;19.98;84.57
30598;BME280;17365;48.878;8.334;2023-07-16T04:33:09;100133.19;;;20.13;84.13
30598;BME280;17365;48.878;8.334;2023-07-16T04:35:34;100139.97;;;19.45;85.21
30598;BME280;17365;48.878;8.334;2023-07-16T04:38:00;100135.50;;;19.47;83.97
30598;BME280;17365;48.878;8.334;2023-07-16T04:40:25;100144.22;;;19.99;83.01
30598;BME280;17365;48.878;8.334;2023-07-16T04:42:50;100146.09;;;20.20;83.25
30598;BME280;17365;48.878;8.334;2023-07-16T04:45:16;100143.13;;;19.55;82.33
30598;BME280;17365;48.878;8.334;2023-07-16T04:47:41;100148.81;;;19.94;82.57
30598;BME280;17365;48.878;8.334;2023-07-16T04:50:07;100138.63;;;19.85;82.34
30598;BME280;17365;48.878;8.334;2023-07-16T04:52:32;100147.06;;;20.18;81.28
30598;BME280;17365;48.878;8.334;2023-07-16T04:54:57;100149.19;;;20.55;78.72
30598;BME280;17365;48.878;8.334;2023-07-16T04:57:22;100152.75;;;20.54;78.90
30598;BME280;17365;48.878;8.334;2023-07-16T04:59:47;100155.31;;;20.55;79.04
30598;BME280;17365;48.878;8.334;2023-07-16T05:02:13;100150.31;;;20.71;78.41
30598;BME280;17365;48.878;8.334;2023-07-16T05:04:40;100160.00;;;20.24;79.91
30598;BME280;17365;48.878;8.334;2023-07-16T05:07:05;100151.16;;;20.72;78.20
30598;BME280;17365;48.878;8.334;2023-07-16T05:09:30;100159.19;;;20.69;77.52
30598;BME280;17365;48.878;8.334;2023-07-16T05:11:56;100161.84;;;20.90;76.65
30598;BME280;17365;48.878;8.334;2023-07-16T05:14:21;100161.44;;;20.32;78.70
30598;BME280;17365;48.878;8.334;2023-07-16T05:16:46;100161.34;;;21.03;76.16
30598;BME280;17365;48.878;8.334;2023-07-16T05:19:11;100159.88;;;21.60;73.34
30598;BME280;17365;48.878;8.334;2023-07-16T05:21:36;100166.19;;;21.13;75.59
30598;BME280;17365;48.878;8.334;2023-07-16T05:24:02;100165.22;;;20.94;74.89
30598;BME280;17365;48.878;8.334;2023-07-16T05:26:27;100155.63;;;20.70;76.76
30598;BME280;17365;48.878;8.334;2023-07-16T05:28:53;100155.00;;;20.86;76.54
30598;BME280;17365;48.878;8.334;2023-07-16T05:31:18;100164.16;;;20.54;77.65
30598;BME280;17365;48.878;8.334;2023-07-16T05:33:43;100162.63;;;20.71;76.44
30598;BME280;17365;48.878;8.334;2023-07-16T05:36:08;100164.81;;;20.59;77.39
30598;BME280;17365;48.878;8.334;2023-07-16T05:38:34;100171.66;;;20.87;76.56
30598;BME280;17365;48.878;8.334;2023-07-16T05:40:59;100174.16;;;20.68;76.10
30598;BME280;17365;48.878;8.334;2023-07-16T05:43:25;100173.88;;;20.76;76.61
30598;BME280;17365;48.878;8.334;2023-07-16T05:45:50;100181.78;;;20.98;75.22
30598;BME280;17365;48.878;8.334;2023-07-16T05:48:15;100175.47;;;21.02;75.45
30598;BME280;17365;48.878;8.334;2023-07-16T05:50:40;100175.03;;;20.45;76.18
30598;BME280;17365;48.878;8.334;2023-07-16T05:53:08;100169.63;;;21.15;75.57
30598;BME280;17365;48.878;8.334;2023-07-16T05:55:33;100179.94;;;21.00;74.13
30598;BME280;17365;48.878;8.334;2023-07-16T05:57:58;100174.31;;;21.09;74.13
30598;BME280;17365;48.878;8.334;2023-07-16T06:00:23;100175.19;;;21.72;72.22
30598;BME280;17365;48.878;8.334;2023-07-16T06:02:49;100176.56;;;21.40;71.62
30598;BME280;17365;48.878;8.334;2023-07-16T06:05:14;100183.09;;;21.31;71.80
30598;BME280;17365;48.878;8.334;2023-07-16T06:07:39;100181.00;;;21.80;71.00
30598;BME280;17365;48.878;8.334;2023-07-16T06:10:04;100179.22;;;22.01;69.93
30598;BME280;17365;48.878;8.334;2023-07-16T06:12:30;100185.88;;;22.30;68.92
30598;BME280;17365;48.878;8.334;2023-07-16T06:14:55;100186.28;;;22.00;68.58
30598;BME280;17365;48.878;8.334;2023-07-16T06:17:20;100182.72;;;22.01;70.04
30598;BME280;17365;48.878;8.334;2023-07-16T06:19:45;100178.31;;;22.41;68.44
30598;BME280;17365;48.878;8.334;2023-07-16T06:22:13;100178.47;;;22.57;68.10
30598;BME280;17365;48.878;8.334;2023-07-16T06:24:38;100183.84;;;22.55;68.07
30598;BME280;17365;48.878;8.334;2023-07-16T06:27:03;100188.66;;;22.64;67.28
30598;BME280;17365;48.878;8.334;2023-07-16T06:29:28;100189.97;;;22.56;67.71
30598;BME280;17365;48.878;8.334;2023-07-16T06:31:57;100194.22;;;22.00;67.95
30598;BME280;17365;48.878;8.334;2023-07-16T06:34:23;100194.47;;;21.94;69.21
30598;BME280;17365;48.878;8.334;2023-07-16T06:36:48;100197.66;;;21.82;70.16
30598;BME280;17365;48.878;8.334;2023-07-16T06:39:13;100207.09;;;21.67;70.51
30598;BME280;17365;48.878;8.334;2023-07-16T06:41:38;100208.00;;;22.08;68.52
30598;BME280;17365;48.878;8.334;2023-07-16T06:44:04;100209.53;;;22.33;66.67
30598;BME280;17365;48.878;8.334;2023-07-16T06:46:29;100210.28;;;22.55;65.47
30598;BME280;17365;48.878;8.334;2023-07-16T06:48:54;100209.41;;;22.55;66.49
30598;BME280;17365;48.878;8.334;2023-07-16T06:51:19;100209.91;;;22.82;65.22
30598;BME280;17365;48.878;8.334;2023-07-16T06:53:44;100201.50;;;23.11;63.83
30598;BME280;17365;48.878;8.334;2023-07-16T06:56:10;100203.56;;;22.86;64.92
30598;BME280;17365;48.878;8.334;2023-07-16T06:58:35;100201.16;;;23.17;63.53
30598;BME280;17365;48.878;8.334;2023-07-16T07:01:00;100190.31;;;23.41;63.01
30598;BME280;17365;48.878;8.334;2023-07-16T07:03:25;100193.56;;;22.92;64.54
30598;BME280;17365;48.878;8.334;2023-07-16T07:05:50;100199.69;;;23.12;63.21
30598;BME280;17365;48.878;8.334;2023-07-16T07:08:16;100198.13;;;23.61;62.10
30598;BME280;17365;48.878;8.334;2023-07-16T07:10:41;100198.81;;;23.47;61.25
30598;BME280;17365;48.878;8.334;2023-07-16T07:13:06;100200.72;;;22.90;62.60
30598;BME280;17365;48.878;8.334;2023-07-16T07:15:31;100207.22;;;23.02;61.26
30598;BME280;17365;48.878;8.334;2023-07-16T07:17:56;100211.94;;;23.32;61.16
30598;BME280;17365;48.878;8.334;2023-07-16T07:20:22;100201.06;;;23.38;60.36
30598;BME280;17365;48.878;8.334;2023-07-16T07:22:47;100207.19;;;23.74;58.62
30598;BME280;17365;48.878;8.334;2023-07-16T07:25:12;100211.13;;;23.48;58.53
30598;BME280;17365;48.878;8.334;2023-07-16T07:27:37;100211.56;;;23.58;59.79
30598;BME280;17365;48.878;8.334;2023-07-16T07:30:02;100218.22;;;23.65;58.75
30598;BME280;17365;48.878;8.334;2023-07-16T07:32:28;100210.38;;;23.28;59.65
30598;BME280;17365;48.878;8.334;2023-07-16T07:34:53;100224.09;;;23.36;59.30
30598;BME280;17365;48.878;8.334;2023-07-16T07:37:19;100234.25;;;22.32;63.64
30598;BME280;17365;48.878;8.334;2023-07-16T07:39:44;100229.94;;;23.06;62.26
30598;BME280;17365;48.878;8.334;2023-07-16T07:42:12;100229.88;;;23.08;62.35
30598;BME280;17365;48.878;8.334;2023-07-16T07:44:37;100236.50;;;23.16;61.99
30598;BME280;17365;48.878;8.334;2023-07-16T07:47:03;100234.28;;;23.26;61.34
30598;BME280;17365;48.878;8.334;2023-07-16T07:49:29;100232.75;;;23.03;62.40
30598;BME280;17365;48.878;8.334;2023-07-16T07:51:54;100222.94;;;22.86;62.84
30598;BME280;17365;48.878;8.334;2023-07-16T07:54:20;100227.78;;;22.77;62.14
30598;BME280;17365;48.878;8.334;2023-07-16T07:56:45;100236.03;;;22.31;63.83
30598;BME280;17365;48.878;8.334;2023-07-16T07:59:10;100235.91;;;22.53;63.55
30598;BME280;17365;48.878;8.334;2023-07-16T08:01:35;100245.72;;;22.31;63.83
30598;BME280;17365;48.878;8.334;2023-07-16T08:04:01;100237.28;;;22.81;63.30
30598;BME280;17365;48.878;8.334;2023-07-16T08:06:26;100244.63;;;22.94;62.75
30598;BME280;17365;48.878;8.334;2023-07-16T08:08:51;100238.13;;;22.62;63.51
30598;BME280;17365;48.878;8.334;2023-07-16T08:11:16;100239.81;;;22.84;62.85
30598;BME280;17365;48.878;8.334;2023-07-16T08:13:41;100226.75;;;22.42;64.65
30598;BME280;17365;48.878;8.334;2023-07-16T08:16:06;100236.84;;;22.13;64.94
30598;BME280;17365;48.878;8.334;2023-07-16T08:18:32;100221.59;;;22.38;64.32
30598;BME280;17365;48.878;8.334;2023-07-16T08:20:57;100222.50;;;22.58;64.54
30598;BME280;17365;48.878;8.334;2023-07-16T08:23:22;100213.69;;;22.76;63.14
30598;BME280;17365;48.878;8.334;2023-07-16T08:25:47;100223.72;;;22.70;63.11
30598;BME280;17365;48.878;8.334;2023-07-16T08:28:13;100218.34;;;23.09;63.15
30598;BME280;17365;48.878;8.334;2023-07-16T08:30:38;100222.00;;;23.42;60.37
30598;BME280;17365;48.878;8.334;2023-07-16T08:33:03;100213.66;;;23.33;59.88
30598;BME280;17365;48.878;8.334;2023-07-16T08:35:28;100233.66;;;22.25;61.78
30598;BME280;17365;48.878;8.334;2023-07-16T08:37:54;100217.56;;;23.07;60.92
30598;BME280;17365;48.878;8.334;2023-07-16T08:40:19;100212.09;;;23.29;60.35
30598;BME280;17365;48.878;8.334;2023-07-16T08:42:45;100226.28;;;23.09;58.34
30598;BME280;17365;48.878;8.334;2023-07-16T08:45:11;100221.34;;;23.20;58.67
30598;BME280;17365;48.878;8.334;2023-07-16T08:47:37;100227.50;;;23.57;58.31
30598;BME280;17365;48.878;8.334;2023-07-16T08:50:02;100223.97;;;23.20;57.51
30598;BME280;17365;48.878;8.334;2023-07-16T08:52:27;100228.59;;;23.87;56.93
30598;BME280;17365;48.878;8.334;2023-07-16T08:54:53;100214.50;;;23.87;54.29
30598;BME280;17365;48.878;8.334;2023-07-16T08:57:18;100214.31;;;24.24;55.25
30598;BME280;17365;48.878;8.334;2023-07-16T08:59:44;100223.13;;;24.58;55.08
30598;BME280;17365;48.878;8.334;2023-07-16T09:02:12;100217.38;;;25.14;53.25
30598;BME280;17365;48.878;8.334;2023-07-16T09:04:37;100226.22;;;24.97;53.30
30598;BME280;17365;48.878;8.334;2023-07-16T09:07:03;100226.03;;;24.53;53.63
30598;BME280;17365;48.878;8.334;2023-07-16T09:09:29;100217.06;;;24.87;52.95
30598;BME280;17365;48.878;8.334;2023-07-16T09:11:54;100220.66;;;24.86;52.57
30598;BME280;17365;48.878;8.334;2023-07-16T09:14:20;100214.56;;;24.53;52.98
30598;BME280;17365;48.878;8.334;2023-07-16T09:16:49;100219.66;;;24.23;51.32
30598;BME280;17365;48.878;8.334;2023-07-16T09:19:14;100208.84;;;24.10;54.67
30598;BME280;17365;48.878;8.334;2023-07-16T09:21:42;100224.91;;;24.24;54.13
30598;BME280;17365;48.878;8.334;2023-07-16T09:24:07;100226.88;;;24.03;54.22
30598;BME280;17365;48.878;8.334;2023-07-16T09:26:33;100225.25;;;23.30;53.63
30598;BME280;17365;48.878;8.334;2023-07-16T09:29:01;100231.00;;;23.74;54.14
30598;BME280;17365;48.878;8.334;2023-07-16T09:31:30;100224.63;;;24.13;53.85
30598;BME280;17365;48.878;8.334;2023-07-16T09:33:56;100228.22;;;24.45;52.87
30598;BME280;17365;48.878;8.334;2023-07-16T09:36:23;100223.44;;;23.13;56.43
30598;BME280;17365;48.878;8.334;2023-07-16T09:38:48;100229.25;;;23.92;55.11
30598;BME280;17365;48.878;8.334;2023-07-16T09:41:13;100223.81;;;24.28;52.66
30598;BME280;17365;48.878;8.334;2023-07-16T09:43:39;100226.94;;;24.36;52.89
30598;BME280;17365;48.878;8.334;2023-07-16T09:46:05;100230.94;;;23.93;52.30
30598;BME280;17365;48.878;8.334;2023-07-16T09:48:30;100237.88;;;24.46;51.58
30598;BME280;17365;48.878;8.334;2023-07-16T09:50:55;100233.94;;;24.86;50.46
30598;BME280;17365;48.878;8.334;2023-07-16T09:53:21;100241.97;;;23.49;52.60
30598;BME280;17365;48.878;8.334;2023-07-16T09:55:46;100240.84;;;23.72;53.20
30598;BME280;17365;48.878;8.334;2023-07-16T09:58:11;100238.16;;;24.42;51.01
30598;BME280;17365;48.878;8.334;2023-07-16T10:00:37;100238.13;;;24.90;49.89
30598;BME280;17365;48.878;8.334;2023-07-16T10:03:05;100224.53;;;24.96;49.93
30598;BME280;17365;48.878;8.334;2023-07-16T10:05:30;100239.34;;;24.69;50.45
30598;BME280;17365;48.878;8.334;2023-07-16T10:10:25;100232.72;;;24.60;51.02
30598;BME280;17365;48.878;8.334;2023-07-16T10:12:57;100233.00;;;24.72;50.41
30598;BME280;17365;48.878;8.334;2023-07-16T10:15:26;100237.94;;;24.62;50.35
30598;BME280;17365;48.878;8.334;2023-07-16T10:17:52;100236.69;;;24.85;49.58
30598;BME280;17365;48.878;8.334;2023-07-16T10:20:17;100239.25;;;24.20;50.07
30598;BME280;17365;48.878;8.334;2023-07-16T10:22:52;100231.81;;;24.44;51.49
30598;BME280;17365;48.878;8.334;2023-07-16T10:27:43;100219.59;;;25.06;47.22
30598;BME280;17365;48.878;8.334;2023-07-16T10:30:08;100217.06;;;24.87;48.24
30598;BME280;17365;48.878;8.334;2023-07-16T10:32:34;100216.81;;;24.60;47.79
30598;BME280;17365;48.878;8.334;2023-07-16T10:34:59;100227.56;;;24.57;49.35
30598;BME280;17365;48.878;8.334;2023-07-16T10:37:25;100220.06;;;24.32;48.96
30598;BME280;17365;48.878;8.334;2023-07-16T10:39:51;100216.31;;;24.85;48.62
30598;BME280;17365;48.878;8.334;2023-07-16T10:42:17;100217.66;;;24.61;48.25
30598;BME280;17365;48.878;8.334;2023-07-16T10:44:42;100222.06;;;23.94;47.49
30598;BME280;17365;48.878;8.334;2023-07-16T10:47:08;100213.81;;;24.66;46.30
30598;BME280;17365;48.878;8.334;2023-07-16T10:49:34;100212.22;;;25.11;44.07
30598;BME280;17365;48.878;8.334;2023-07-16T10:51:59;100208.94;;;24.90;45.49
30598;BME280;17365;48.878;8.334;2023-07-16T10:54:25;100217.38;;;24.50;44.91
30598;BME280;17365;48.878;8.334;2023-07-16T10:56:50;100214.84;;;24.80;45.03
30598;BME280;17365;48.878;8.334;2023-07-16T10:59:16;100209.06;;;25.05;45.11
30598;BME280;17365;48.878;8.334;2023-07-16T11:01:41;100206.38;;;24.89;44.50
30598;BME280;17365;48.878;8.334;2023-07-16T11:04:07;100197.63;;;25.34;43.30
30598;BME280;17365;48.878;8.334;2023-07-16T11:06:33;100211.97;;;25.16;43.60
30598;BME280;17365;48.878;8.334;2023-07-16T11:09:10;100208.22;;;25.04;43.30
30598;BME280;17365;48.878;8.334;2023-07-16T11:11:35;100207.63;;;24.66;43.52
30598;BME280;17365;48.878;8.334;2023-07-16T11:14:04;100217.09;;;24.38;44.01
30598;BME280;17365;48.878;8.334;2023-07-16T11:16:33;100223.72;;;24.79;43.66
30598;BME280;17365;48.878;8.334;2023-07-16T11:18:59;100213.72;;;24.68;44.37
30598;BME280;17365;48.878;8.334;2023-07-16T11:21:25;100213.66;;;25.01;44.74
30598;BME280;17365;48.878;8.334;2023-07-16T11:23:51;100202.72;;;25.07;44.50
30598;BME280;17365;48.878;8.334;2023-07-16T11:26:16;100197.09;;;24.80;44.31
30598;BME280;17365;48.878;8.334;2023-07-16T11:28:41;100205.75;;;24.52;44.77
30598;BME280;17365;48.878;8.334;2023-07-16T11:31:16;100208.72;;;24.46;44.15
30598;BME280;17365;48.878;8.334;2023-07-16T11:33:45;100208.41;;;25.00;44.21
30598;BME280;17365;48.878;8.334;2023-07-16T11:36:10;100207.25;;;25.21;43.58
30598;BME280;17365;48.878;8.334;2023-07-16T11:38:36;100205.38;;;25.07;43.55
30598;BME280;17365;48.878;8.334;2023-07-16T11:41:02;100211.59;;;25.22;43.29
30598;BME280;17365;48.878;8.334;2023-07-16T11:43:27;100211.81;;;24.54;44.72
30598;BME280;17365;48.878;8.334;2023-07-16T11:45:52;100202.00;;;24.72;43.49
30598;BME280;17365;48.878;8.334;2023-07-16T11:48:17;100196.41;;;25.40;43.48
30598;BME280;17365;48.878;8.334;2023-07-16T11:50:42;100204.06;;;25.30;43.67
30598;BME280;17365;48.878;8.334;2023-07-16T11:53:08;100198.25;;;25.53;43.18
30598;BME280;17365;48.878;8.334;2023-07-16T11:55:33;100199.06;;;25.40;43.45
30598;BME280;17365;48.878;8.334;2023-07-16T11:57:58;100193.91;;;25.52;42.87
30598;BME280;17365;48.878;8.334;2023-07-16T12:00:24;100195.97;;;25.77;42.63
30598;BME280;17365;48.878;8.334;2023-07-16T12:02:50;100198.56;;;25.33;42.05
30598;BME280;17365;48.878;8.334;2023-07-16T12:05:21;100199.72;;;24.82;42.89
30598;BME280;17365;48.878;8.334;2023-07-16T12:07:46;100198.00;;;25.28;43.37
30598;BME280;17365;48.878;8.334;2023-07-16T12:10:12;100188.53;;;25.38;41.83
30598;BME280;17365;48.878;8.334;2023-07-16T12:12:37;100193.88;;;24.75;43.22
30598;BME280;17365;48.878;8.334;2023-07-16T12:15:03;100199.47;;;25.18;42.44
30598;BME280;17365;48.878;8.334;2023-07-16T12:17:28;100184.03;;;24.77;43.32
30598;BME280;17365;48.878;8.334;2023-07-16T12:19:53;100190.88;;;25.29;41.92
30598;BME280;17365;48.878;8.334;2023-07-16T12:22:19;100180.06;;;25.32;43.18
30598;BME280;17365;48.878;8.334;2023-07-16T12:24:44;100181.22;;;26.30;41.52
30598;BME280;17365;48.878;8.334;2023-07-16T12:27:10;100179.75;;;25.52;42.35
30598;BME280;17365;48.878;8.334;2023-07-16T12:29:35;100175.88;;;25.73;41.54
30598;BME280;17365;48.878;8.334;2023-07-16T12:32:00;100173.31;;;25.26;43.04
30598;BME280;17365;48.878;8.334;2023-07-16T12:34:25;100179.31;;;25.14;41.73
30598;BME280;17365;48.878;8.334;2023-07-16T12:36:51;100168.53;;;24.85;43.60
30598;BME280;17365;48.878;8.334;2023-07-16T12:39:16;100164.56;;;25.24;42.82
30598;BME280;17365;48.878;8.334;2023-07-16T12:41:42;100162.75;;;25.70;42.49
30598;BME280;17365;48.878;8.334;2023-07-16T12:44:07;100166.59;;;25.95;40.25
30598;BME280;17365;48.878;8.334;2023-07-16T12:46:32;100156.97;;;25.92;40.77
30598;BME280;17365;48.878;8.334;2023-07-16T12:48:58;100159.81;;;25.75;41.99
30598;BME280;17365;48.878;8.334;2023-07-16T12:51:23;100158.06;;;25.60;41.50
30598;BME280;17365;48.878;8.334;2023-07-16T12:53:48;100160.59;;;25.77;41.69
30598;BME280;17365;48.878;8.334;2023-07-16T12:56:13;100162.44;;;25.31;41.83
30598;BME280;17365;48.878;8.334;2023-07-16T12:58:38;100158.63;;;25.35;41.70